sensor_id;sensor_type;location;lat;lon;timestamp;temperature;humidity
32865;DHT22;19219;44.500;11.188;2023-06-22T00:00:56;25.20;99.90
32865;DHT22;19219;44.500;11.188;2023-06-22T00:03:23;25.20;99.90
32865;DHT22;19219;44.500;11.188;2023-06-22T00:05:50;25.20;99.90
32865;DHT22;19219;44.500;11.188;2023-06-22T00:08:16;25.10;99.90
32865;DHT22;19219;44.500;11.188;2023-06-22T00:10:42;25.10;99.90
32865;DHT22;19219;44.500;11.188;2023-06-22T00:13:09;25.00;99.90
32865;DHT22;19219;44.500;11.188;2023-06-22T00:15:35;25.00;99.90
32865;DHT22;19219;44.500;11.188;2023-06-22T00:18:01;24.90;99.90
32865;DHT22;19219;44.500;11.188;2023-06-22T00:20:28;24.80;99.90
32865;DHT22;19219;44.500;11.188;2023-06-22T00:22:54;24.70;99.90
32865;DHT22;19219;44.500;11.188;2023-06-22T00:25:20;24.70;99.90
32865;DHT22;19219;44.500;11.188;2023-06-22T00:27:46;24.70;99.90
32865;DHT22;19219;44.500;11.188;2023-06-22T00:30:12;24.80;99.90
32865;DHT22;19219;44.500;11.188;2023-06-22T00:32:37;24.80;99.90
32865;DHT22;19219;44.500;11.188;2023-06-22T00:35:03;24.70;99.90
32865;DHT22;19219;44.500;11.188;2023-06-22T00:37:29;24.50;99.90
32865;DHT22;19219;44.500;11.188;2023-06-22T00:39:58;24.50;99.90
32865;DHT22;19219;44.500;11.188;2023-06-22T00:42:24;24.50;99.90
32865;DHT22;19219;44.500;11.188;2023-06-22T00:44:50;24.50;99.90
32865;DHT22;19219;44.500;11.188;2023-06-22T00:47:17;24.60;99.90
32865;DHT22;19219;44.500;11.188;2023-06-22T00:49:44;24.60;99.90
32865;DHT22;19219;44.500;11.188;2023-06-22T00:52:10;24.60;99.90
32865;DHT22;19219;44.500;11.188;2023-06-22T00:54:40;24.50;99.90
32865;DHT22;19219;44.500;11.188;2023-06-22T00:57:14;24.40;99.90
32865;DHT22;19219;44.500;11.188;2023-06-22T00:59:45;24.40;99.90
32865;DHT22;19219;44.500;11.188;2023-06-22T01:02:11;24.30;99.90
32865;DHT22;19219;44.500;11.188;2023-06-22T01:04:38;24.40;99.90
32865;DHT22;19219;44.500;11.188;2023-06-22T01:12:40;24.60;99.90
32865;DHT22;19219;44.500;11.188;2023-06-22T01:15:13;24.70;99.90
32865;DHT22;19219;44.500;11.188;2023-06-22T01:17:41;24.70;99.90
32865;DHT22;19219;44.500;11.188;2023-06-22T01:20:09;24.70;99.90
32865;DHT22;19219;44.500;11.188;2023-06-22T01:25:48;24.80;99.90
32865;DHT22;19219;44.500;11.188;2023-06-22T01:31:17;24.70;99.90
32865;DHT22;19219;44.500;11.188;2023-06-22T01:33:45;24.80;99.90
32865;DHT22;19219;44.500;11.188;2023-06-22T01:36:13;24.80;99.90
32865;DHT22;19219;44.500;11.188;2023-06-22T01:38:40;24.90;99.90
32865;DHT22;19219;44.500;11.188;2023-06-22T01:41:06;24.80;99.90
32865;DHT22;19219;44.500;11.188;2023-06-22T01:43:32;24.80;99.90
32865;DHT22;19219;44.500;11.188;2023-06-22T01:46:01;24.80;99.90
32865;DHT22;19219;44.500;11.188;2023-06-22T01:48:27;24.70;99.90
32865;DHT22;19219;44.500;11.188;2023-06-22T01:50:54;24.60;99.90
32865;DHT22;19219;44.500;11.188;2023-06-22T01:53:24;24.60;99.90
32865;DHT22;19219;44.500;11.188;2023-06-22T01:55:51;24.40;99.90
32865;DHT22;19219;44.500;11.188;2023-06-22T01:58:17;24.40;99.90
32865;DHT22;19219;44.500;11.188;2023-06-22T02:00:50;24.40;99.90
32865;DHT22;19219;44.500;11.188;2023-06-22T02:03:23;24.50;99.90
32865;DHT22;19219;44.500;11.188;2023-06-22T02:05:58;24.50;99.90
32865;DHT22;19219;44.500;11.188;2023-06-22T02:08:37;24.50;99.90
32865;DHT22;19219;44.500;11.188;2023-06-22T02:11:03;24.30;99.90
32865;DHT22;19219;44.500;11.188;2023-06-22T02:13:31;24.30;99.90
32865;DHT22;19219;44.500;11.188;2023-06-22T02:15:58;24.20;99.90
32865;DHT22;19219;44.500;11.188;2023-06-22T02:18:23;24.00;99.90
32865;DHT22;19219;44.500;11.188;2023-06-22T02:20:50;23.80;99.90
32865;DHT22;19219;44.500;11.188;2023-06-22T02:23:16;23.70;99.90
32865;DHT22;19219;44.500;11.188;2023-06-22T02:25:42;23.60;99.90
32865;DHT22;19219;44.500;11.188;2023-06-22T02:28:09;23.60;99.90
32865;DHT22;19219;44.500;11.188;2023-06-22T02:30:35;23.50;99.90
32865;DHT22;19219;44.500;11.188;2023-06-22T02:33:01;23.50;99.90
32865;DHT22;19219;44.500;11.188;2023-06-22T02:35:28;23.40;99.90
32865;DHT22;19219;44.500;11.188;2023-06-22T02:37:58;23.40;99.90
32865;DHT22;19219;44.500;11.188;2023-06-22T02:40:25;23.40;99.90
32865;DHT22;19219;44.500;11.188;2023-06-22T02:42:50;23.40;99.90
32865;DHT22;19219;44.500;11.188;2023-06-22T02:45:16;23.40;99.90
32865;DHT22;19219;44.500;11.188;2023-06-22T02:47:42;23.40;99.90
32865;DHT22;19219;44.500;11.188;2023-06-22T02:50:08;23.30;99.90
32865;DHT22;19219;44.500;11.188;2023-06-22T02:52:34;23.30;99.90
32865;DHT22;19219;44.500;11.188;2023-06-22T03:08:29;23.10;99.90
32865;DHT22;19219;44.500;11.188;2023-06-22T03:10:55;23.10;99.90
32865;DHT22;19219;44.500;11.188;2023-06-22T03:13:21;23.00;99.90
32865;DHT22;19219;44.500;11.188;2023-06-22T03:15:47;23.00;99.90
32865;DHT22;19219;44.500;11.188;2023-06-22T03:18:13;22.90;99.90
32865;DHT22;19219;44.500;11.188;2023-06-22T03:20:38;22.90;99.90
32865;DHT22;19219;44.500;11.188;2023-06-22T03:23:04;22.80;99.90
32865;DHT22;19219;44.500;11.188;2023-06-22T03:25:30;22.90;99.90
32865;DHT22;19219;44.500;11.188;2023-06-22T03:27:56;22.90;99.90
32865;DHT22;19219;44.500;11.188;2023-06-22T03:30:21;22.80;99.90
32865;DHT22;19219;44.500;11.188;2023-06-22T03:32:47;22.70;99.90
32865;DHT22;19219;44.500;11.188;2023-06-22T03:35:13;22.70;99.90
32865;DHT22;19219;44.500;11.188;2023-06-22T03:37:39;22.70;99.90
32865;DHT22;19219;44.500;11.188;2023-06-22T03:40:05;22.60;99.90
32865;DHT22;19219;44.500;11.188;2023-06-22T03:42:34;22.70;99.90
32865;DHT22;19219;44.500;11.188;2023-06-22T03:45:01;22.60;99.90
32865;DHT22;19219;44.500;11.188;2023-06-22T03:47:27;22.60;99.90
32865;DHT22;19219;44.500;11.188;2023-06-22T03:49:52;22.50;99.90
32865;DHT22;19219;44.500;11.188;2023-06-22T03:52:23;22.50;99.90
32865;DHT22;19219;44.500;11.188;2023-06-22T03:54:48;22.50;99.90
32865;DHT22;19219;44.500;11.188;2023-06-22T03:57:14;22.50;99.90
32865;DHT22;19219;44.500;11.188;2023-06-22T03:59:40;22.60;99.90
32865;DHT22;19219;44.500;11.188;2023-06-22T04:02:05;22.50;99.90
32865;DHT22;19219;44.500;11.188;2023-06-22T04:04:31;22.60;99.90
32865;DHT22;19219;44.500;11.188;2023-06-22T04:06:57;22.60;99.90
32865;DHT22;19219;44.500;11.188;2023-06-22T04:09:24;22.50;99.90
32865;DHT22;19219;44.500;11.188;2023-06-22T04:11:49;22.50;99.90
32865;DHT22;19219;44.500;11.188;2023-06-22T04:14:15;22.50;99.90
32865;DHT22;19219;44.500;11.188;2023-06-22T04:16:41;22.60;99.90
32865;DHT22;19219;44.500;11.188;2023-06-22T04:19:06;22.60;99.90
32865;DHT22;19219;44.500;11.188;2023-06-22T04:21:32;22.70;99.90
32865;DHT22;19219;44.500;11.188;2023-06-22T04:23:58;22.70;99.90
32865;DHT22;19219;44.500;11.188;2023-06-22T04:26:23;22.70;99.90
32865;DHT22;19219;44.500;11.188;2023-06-22T04:28:49;22.80;99.90
32865;DHT22;19219;44.500;11.188;2023-06-22T04:31:17;23.00;99.90
32865;DHT22;19219;44.500;11.188;2023-06-22T04:33:44;23.00;99.90
32865;DHT22;19219;44.500;11.188;2023-06-22T04:36:10;23.20;99.90
32865;DHT22;19219;44.500;11.188;2023-06-22T04:38:39;23.20;99.90
32865;DHT22;19219;44.500;11.188;2023-06-22T04:41:05;23.40;99.90
32865;DHT22;19219;44.500;11.188;2023-06-22T04:43:33;23.40;99.90
32865;DHT22;19219;44.500;11.188;2023-06-22T04:45:59;23.60;99.90
32865;DHT22;19219;44.500;11.188;2023-06-22T04:48:31;23.70;99.90
32865;DHT22;19219;44.500;11.188;2023-06-22T04:51:01;23.70;99.90
32865;DHT22;19219;44.500;11.188;2023-06-22T04:53:29;23.80;99.90
32865;DHT22;19219;44.500;11.188;2023-06-22T04:55:55;23.90;99.90
32865;DHT22;19219;44.500;11.188;2023-06-22T04:58:21;24.00;99.90
32865;DHT22;19219;44.500;11.188;2023-06-22T05:00:47;24.10;99.90
32865;DHT22;19219;44.500;11.188;2023-06-22T05:03:13;24.30;99.90
32865;DHT22;19219;44.500;11.188;2023-06-22T05:05:39;24.50;99.90
32865;DHT22;19219;44.500;11.188;2023-06-22T05:08:04;24.70;99.90
32865;DHT22;19219;44.500;11.188;2023-06-22T05:10:32;24.80;99.90
32865;DHT22;19219;44.500;11.188;2023-06-22T05:12:58;24.90;99.90
32865;DHT22;19219;44.500;11.188;2023-06-22T05:15:25;25.10;99.90
32865;DHT22;19219;44.500;11.188;2023-06-22T05:17:53;25.30;99.90
32865;DHT22;19219;44.500;11.188;2023-06-22T05:20:19;25.50;99.90
32865;DHT22;19219;44.500;11.188;2023-06-22T05:22:47;25.60;99.90
32865;DHT22;19219;44.500;11.188;2023-06-22T05:25:13;25.80;99.90
32865;DHT22;19219;44.500;11.188;2023-06-22T05:27:40;25.90;99.90
32865;DHT22;19219;44.500;11.188;2023-06-22T05:30:07;26.10;99.90
32865;DHT22;19219;44.500;11.188;2023-06-22T05:32:33;26.30;99.90
32865;DHT22;19219;44.500;11.188;2023-06-22T05:34:59;26.50;99.90
32865;DHT22;19219;44.500;11.188;2023-06-22T05:37:25;26.80;99.90
32865;DHT22;19219;44.500;11.188;2023-06-22T05:39:51;27.20;99.90
32865;DHT22;19219;44.500;11.188;2023-06-22T05:42:17;27.50;99.90
32865;DHT22;19219;44.500;11.188;2023-06-22T05:44:43;27.80;99.90
32865;DHT22;19219;44.500;11.188;2023-06-22T05:47:09;28.20;99.90
32865;DHT22;19219;44.500;11.188;2023-06-22T05:49:34;28.50;99.90
32865;DHT22;19219;44.500;11.188;2023-06-22T05:52:00;29.00;99.90
32865;DHT22;19219;44.500;11.188;2023-06-22T05:54:27;29.20;99.90
32865;DHT22;19219;44.500;11.188;2023-06-22T05:56:53;29.30;99.90
32865;DHT22;19219;44.500;11.188;2023-06-22T05:59:19;29.30;99.90
32865;DHT22;19219;44.500;11.188;2023-06-22T06:01:45;29.20;99.90
32865;DHT22;19219;44.500;11.188;2023-06-22T06:04:18;28.90;99.90
32865;DHT22;19219;44.500;11.188;2023-06-22T06:06:44;28.80;99.90
32865;DHT22;19219;44.500;11.188;2023-06-22T06:09:10;28.60;99.90
32865;DHT22;19219;44.500;11.188;2023-06-22T06:11:37;28.40;99.90
32865;DHT22;19219;44.500;11.188;2023-06-22T06:14:03;28.20;99.90
32865;DHT22;19219;44.500;11.188;2023-06-22T06:16:28;28.20;99.90
32865;DHT22;19219;44.500;11.188;2023-06-22T06:18:54;28.30;99.90
32865;DHT22;19219;44.500;11.188;2023-06-22T06:21:21;28.30;99.90
32865;DHT22;19219;44.500;11.188;2023-06-22T06:23:47;28.40;99.90
32865;DHT22;19219;44.500;11.188;2023-06-22T06:26:12;28.50;99.90
32865;DHT22;19219;44.500;11.188;2023-06-22T06:28:41;28.80;99.90
32865;DHT22;19219;44.500;11.188;2023-06-22T06:31:06;29.30;99.90
32865;DHT22;19219;44.500;11.188;2023-06-22T06:33:32;29.70;99.90
32865;DHT22;19219;44.500;11.188;2023-06-22T06:35:58;30.10;99.90
32865;DHT22;19219;44.500;11.188;2023-06-22T06:38:27;30.50;99.90
32865;DHT22;19219;44.500;11.188;2023-06-22T06:40:52;30.70;99.90
32865;DHT22;19219;44.500;11.188;2023-06-22T06:43:18;30.80;99.90
32865;DHT22;19219;44.500;11.188;2023-06-22T06:45:44;30.80;99.90
32865;DHT22;19219;44.500;11.188;2023-06-22T06:48:09;30.70;99.90
32865;DHT22;19219;44.500;11.188;2023-06-22T06:50:35;30.80;99.90
32865;DHT22;19219;44.500;11.188;2023-06-22T06:53:01;30.80;99.90
32865;DHT22;19219;44.500;11.188;2023-06-22T06:55:26;31.10;99.90
32865;DHT22;19219;44.500;11.188;2023-06-22T06:57:54;31.40;99.90
32865;DHT22;19219;44.500;11.188;2023-06-22T07:00:20;31.50;99.90
32865;DHT22;19219;44.500;11.188;2023-06-22T07:02:46;31.60;99.90
32865;DHT22;19219;44.500;11.188;2023-06-22T07:05:13;31.80;99.90
32865;DHT22;19219;44.500;11.188;2023-06-22T07:07:39;31.80;99.90
32865;DHT22;19219;44.500;11.188;2023-06-22T07:10:06;32.00;99.90
32865;DHT22;19219;44.500;11.188;2023-06-22T07:12:31;32.10;99.90
32865;DHT22;19219;44.500;11.188;2023-06-22T07:15:10;32.10;99.90
32865;DHT22;19219;44.500;11.188;2023-06-22T07:17:37;32.30;99.90
32865;DHT22;19219;44.500;11.188;2023-06-22T07:20:05;32.40;99.90
32865;DHT22;19219;44.500;11.188;2023-06-22T07:22:40;32.60;99.90
32865;DHT22;19219;44.500;11.188;2023-06-22T07:25:07;32.80;99.90
32865;DHT22;19219;44.500;11.188;2023-06-22T07:27:39;32.60;99.90
32865;DHT22;19219;44.500;11.188;2023-06-22T07:30:09;33.00;99.90
32865;DHT22;19219;44.500;11.188;2023-06-22T07:32:35;33.10;99.90
32865;DHT22;19219;44.500;11.188;2023-06-22T07:35:01;33.20;99.90
32865;DHT22;19219;44.500;11.188;2023-06-22T07:37:28;33.30;99.90
32865;DHT22;19219;44.500;11.188;2023-06-22T07:39:55;33.10;99.90
32865;DHT22;19219;44.500;11.188;2023-06-22T07:42:24;32.80;99.90
32865;DHT22;19219;44.500;11.188;2023-06-22T07:44:50;32.80;99.90
32865;DHT22;19219;44.500;11.188;2023-06-22T07:47:16;32.60;99.90
32865;DHT22;19219;44.500;11.188;2023-06-22T07:49:45;32.70;99.90
32865;DHT22;19219;44.500;11.188;2023-06-22T07:52:10;32.80;99.90
32865;DHT22;19219;44.500;11.188;2023-06-22T07:54:36;33.00;99.90
32865;DHT22;19219;44.500;11.188;2023-06-22T07:57:02;33.40;99.90
32865;DHT22;19219;44.500;11.188;2023-06-22T07:59:28;33.60;99.90
32865;DHT22;19219;44.500;11.188;2023-06-22T08:01:55;33.70;99.90
32865;DHT22;19219;44.500;11.188;2023-06-22T08:04:21;34.00;99.90
32865;DHT22;19219;44.500;11.188;2023-06-22T08:06:46;34.00;99.90
32865;DHT22;19219;44.500;11.188;2023-06-22T08:09:12;34.40;99.90
32865;DHT22;19219;44.500;11.188;2023-06-22T08:11:38;34.70;99.90
32865;DHT22;19219;44.500;11.188;2023-06-22T08:14:03;35.00;99.90
32865;DHT22;19219;44.500;11.188;2023-06-22T08:16:29;34.90;99.90
32865;DHT22;19219;44.500;11.188;2023-06-22T08:18:55;35.00;99.90
32865;DHT22;19219;44.500;11.188;2023-06-22T08:21:21;34.90;99.90
32865;DHT22;19219;44.500;11.188;2023-06-22T08:23:48;34.90;99.90
32865;DHT22;19219;44.500;11.188;2023-06-22T08:26:14;35.10;99.90
32865;DHT22;19219;44.500;11.188;2023-06-22T08:28:40;35.30;99.90
32865;DHT22;19219;44.500;11.188;2023-06-22T08:31:06;35.60;99.90
32865;DHT22;19219;44.500;11.188;2023-06-22T08:33:31;35.40;99.60
32865;DHT22;19219;44.500;11.188;2023-06-22T08:35:58;35.40;99.90
32865;DHT22;19219;44.500;11.188;2023-06-22T08:38:24;35.70;99.90
32865;DHT22;19219;44.500;11.188;2023-06-22T08:40:50;35.50;99.50
32865;DHT22;19219;44.500;11.188;2023-06-22T08:43:16;35.60;99.10
32865;DHT22;19219;44.500;11.188;2023-06-22T08:45:41;35.50;98.10
32865;DHT22;19219;44.500;11.188;2023-06-22T08:48:07;35.60;96.80
32865;DHT22;19219;44.500;11.188;2023-06-22T08:50:33;35.10;98.40
32865;DHT22;19219;44.500;11.188;2023-06-22T08:52:58;35.10;98.30
32865;DHT22;19219;44.500;11.188;2023-06-22T08:55:24;35.10;97.40
32865;DHT22;19219;44.500;11.188;2023-06-22T08:57:49;35.10;97.10
32865;DHT22;19219;44.500;11.188;2023-06-22T09:00:17;35.00;98.70
32865;DHT22;19219;44.500;11.188;2023-06-22T09:02:45;35.30;96.20
32865;DHT22;19219;44.500;11.188;2023-06-22T09:05:12;35.20;96.10
32865;DHT22;19219;44.500;11.188;2023-06-22T09:07:37;35.30;96.70
32865;DHT22;19219;44.500;11.188;2023-06-22T09:10:04;35.70;96.20
32865;DHT22;19219;44.500;11.188;2023-06-22T09:12:33;35.90;94.40
32865;DHT22;19219;44.500;11.188;2023-06-22T09:14:59;35.90;94.60
32865;DHT22;19219;44.500;11.188;2023-06-22T09:17:26;36.10;94.60
32865;DHT22;19219;44.500;11.188;2023-06-22T09:19:52;36.00;94.30
32865;DHT22;19219;44.500;11.188;2023-06-22T09:22:18;35.90;95.00
32865;DHT22;19219;44.500;11.188;2023-06-22T09:24:43;36.00;95.10
32865;DHT22;19219;44.500;11.188;2023-06-22T09:27:09;36.00;93.70
32865;DHT22;19219;44.500;11.188;2023-06-22T09:29:34;35.90;92.90
32865;DHT22;19219;44.500;11.188;2023-06-22T09:32:00;36.00;93.40
32865;DHT22;19219;44.500;11.188;2023-06-22T09:34:27;36.20;91.60
32865;DHT22;19219;44.500;11.188;2023-06-22T09:36:52;36.30;90.40
32865;DHT22;19219;44.500;11.188;2023-06-22T09:39:18;36.20;90.20
32865;DHT22;19219;44.500;11.188;2023-06-22T09:41:44;36.20;90.90
32865;DHT22;19219;44.500;11.188;2023-06-22T09:44:10;36.20;92.40
32865;DHT22;19219;44.500;11.188;2023-06-22T09:46:36;36.10;91.30
32865;DHT22;19219;44.500;11.188;2023-06-22T09:49:01;36.10;91.90
32865;DHT22;19219;44.500;11.188;2023-06-22T09:51:27;35.80;91.20
32865;DHT22;19219;44.500;11.188;2023-06-22T09:53:53;35.70;90.80
32865;DHT22;19219;44.500;11.188;2023-06-22T09:56:21;35.70;91.00
32865;DHT22;19219;44.500;11.188;2023-06-22T09:58:48;35.50;91.50
32865;DHT22;19219;44.500;11.188;2023-06-22T10:01:15;35.60;91.30
32865;DHT22;19219;44.500;11.188;2023-06-22T10:03:41;35.70;91.00
32865;DHT22;19219;44.500;11.188;2023-06-22T10:06:07;35.70;90.40
32865;DHT22;19219;44.500;11.188;2023-06-22T10:08:34;35.60;90.80
32865;DHT22;19219;44.500;11.188;2023-06-22T10:10:59;35.70;91.80
32865;DHT22;19219;44.500;11.188;2023-06-22T10:13:25;35.80;90.10
32865;DHT22;19219;44.500;11.188;2023-06-22T10:15:51;36.00;89.40
32865;DHT22;19219;44.500;11.188;2023-06-22T10:18:20;36.00;90.80
32865;DHT22;19219;44.500;11.188;2023-06-22T10:20:50;36.00;91.60
32865;DHT22;19219;44.500;11.188;2023-06-22T10:23:17;35.90;92.40
32865;DHT22;19219;44.500;11.188;2023-06-22T10:25:43;35.60;91.10
32865;DHT22;19219;44.500;11.188;2023-06-22T10:28:08;35.50;91.90
32865;DHT22;19219;44.500;11.188;2023-06-22T10:30:34;35.60;90.70
32865;DHT22;19219;44.500;11.188;2023-06-22T10:32:59;35.40;90.80
32865;DHT22;19219;44.500;11.188;2023-06-22T10:35:25;35.40;92.00
32865;DHT22;19219;44.500;11.188;2023-06-22T10:37:51;35.40;91.90
32865;DHT22;19219;44.500;11.188;2023-06-22T10:40:17;35.20;91.80
32865;DHT22;19219;44.500;11.188;2023-06-22T10:42:44;35.40;90.60
32865;DHT22;19219;44.500;11.188;2023-06-22T10:45:10;35.10;90.80
32865;DHT22;19219;44.500;11.188;2023-06-22T10:47:36;35.10;92.20
32865;DHT22;19219;44.500;11.188;2023-06-22T10:50:02;35.00;90.60
32865;DHT22;19219;44.500;11.188;2023-06-22T10:52:28;35.00;90.30
32865;DHT22;19219;44.500;11.188;2023-06-22T10:54:54;35.00;90.60
32865;DHT22;19219;44.500;11.188;2023-06-22T10:57:21;35.20;91.40
32865;DHT22;19219;44.500;11.188;2023-06-22T10:59:47;35.40;90.20
32865;DHT22;19219;44.500;11.188;2023-06-22T11:02:12;35.50;89.50
32865;DHT22;19219;44.500;11.188;2023-06-22T11:04:38;35.70;90.70
32865;DHT22;19219;44.500;11.188;2023-06-22T11:07:04;35.70;90.60
32865;DHT22;19219;44.500;11.188;2023-06-22T11:09:30;35.60;90.00
32865;DHT22;19219;44.500;11.188;2023-06-22T11:11:56;35.70;90.00
32865;DHT22;19219;44.500;11.188;2023-06-22T11:14:22;35.70;90.00
32865;DHT22;19219;44.500;11.188;2023-06-22T11:16:48;35.60;88.90
32865;DHT22;19219;44.500;11.188;2023-06-22T11:19:13;35.60;88.70
32865;DHT22;19219;44.500;11.188;2023-06-22T11:21:39;35.50;90.60
32865;DHT22;19219;44.500;11.188;2023-06-22T11:24:05;35.60;87.80
32865;DHT22;19219;44.500;11.188;2023-06-22T11:26:31;35.50;88.30
32865;DHT22;19219;44.500;11.188;2023-06-22T11:29:00;35.50;90.10
32865;DHT22;19219;44.500;11.188;2023-06-22T11:31:25;35.70;90.10
32865;DHT22;19219;44.500;11.188;2023-06-22T11:33:51;35.50;89.70
32865;DHT22;19219;44.500;11.188;2023-06-22T11:36:17;35.60;89.80
32865;DHT22;19219;44.500;11.188;2023-06-22T11:38:43;35.50;89.50
32865;DHT22;19219;44.500;11.188;2023-06-22T11:41:10;35.50;87.40
32865;DHT22;19219;44.500;11.188;2023-06-22T11:43:36;35.30;88.90
32865;DHT22;19219;44.500;11.188;2023-06-22T11:46:05;35.40;88.70
32865;DHT22;19219;44.500;11.188;2023-06-22T11:48:31;35.50;90.30
32865;DHT22;19219;44.500;11.188;2023-06-22T11:50:57;35.60;89.10
32865;DHT22;19219;44.500;11.188;2023-06-22T11:53:25;35.60;89.70
32865;DHT22;19219;44.500;11.188;2023-06-22T11:55:51;35.60;89.90
32865;DHT22;19219;44.500;11.188;2023-06-22T11:58:18;35.50;88.10
32865;DHT22;19219;44.500;11.188;2023-06-22T12:00:43;35.60;86.50
32865;DHT22;19219;44.500;11.188;2023-06-22T12:03:10;35.60;87.70
32865;DHT22;19219;44.500;11.188;2023-06-22T12:05:37;35.50;88.20
32865;DHT22;19219;44.500;11.188;2023-06-22T12:08:03;35.50;88.60
32865;DHT22;19219;44.500;11.188;2023-06-22T12:10:29;35.50;86.50
32865;DHT22;19219;44.500;11.188;2023-06-22T12:12:55;35.50;84.60
32865;DHT22;19219;44.500;11.188;2023-06-22T12:15:20;35.60;88.00
32865;DHT22;19219;44.500;11.188;2023-06-22T12:17:46;35.50;83.70
32865;DHT22;19219;44.500;11.188;2023-06-22T12:20:13;35.60;85.60
32865;DHT22;19219;44.500;11.188;2023-06-22T12:22:40;35.70;83.40
32865;DHT22;19219;44.500;11.188;2023-06-22T12:25:07;35.60;80.40
32865;DHT22;19219;44.500;11.188;2023-06-22T12:27:33;35.70;82.30
32865;DHT22;19219;44.500;11.188;2023-06-22T12:29:59;35.70;77.80
32865;DHT22;19219;44.500;11.188;2023-06-22T12:32:25;35.70;78.00
32865;DHT22;19219;44.500;11.188;2023-06-22T12:34:51;35.70;76.10
32865;DHT22;19219;44.500;11.188;2023-06-22T12:37:16;35.80;76.20
32865;DHT22;19219;44.500;11.188;2023-06-22T12:39:43;35.90;78.00
32865;DHT22;19219;44.500;11.188;2023-06-22T12:42:09;35.80;77.30
32865;DHT22;19219;44.500;11.188;2023-06-22T12:44:37;35.90;78.30
32865;DHT22;19219;44.500;11.188;2023-06-22T12:47:03;36.10;80.30
32865;DHT22;19219;44.500;11.188;2023-06-22T12:49:29;36.10;81.80
32865;DHT22;19219;44.500;11.188;2023-06-22T12:51:55;36.10;76.10
32865;DHT22;19219;44.500;11.188;2023-06-22T12:54:20;36.10;76.80
32865;DHT22;19219;44.500;11.188;2023-06-22T12:56:46;36.00;76.60
32865;DHT22;19219;44.500;11.188;2023-06-22T12:59:12;35.90;78.10
32865;DHT22;19219;44.500;11.188;2023-06-22T13:01:38;35.90;78.40
32865;DHT22;19219;44.500;11.188;2023-06-22T13:04:04;35.90;77.90
32865;DHT22;19219;44.500;11.188;2023-06-22T13:06:30;36.00;74.10
32865;DHT22;19219;44.500;11.188;2023-06-22T13:08:56;36.00;74.20
32865;DHT22;19219;44.500;11.188;2023-06-22T13:11:21;36.10;76.30
32865;DHT22;19219;44.500;11.188;2023-06-22T13:13:47;36.10;76.20
32865;DHT22;19219;44.500;11.188;2023-06-22T13:16:13;36.10;77.00
32865;DHT22;19219;44.500;11.188;2023-06-22T13:18:38;36.00;76.90
32865;DHT22;19219;44.500;11.188;2023-06-22T13:21:05;36.00;79.20
32865;DHT22;19219;44.500;11.188;2023-06-22T13:23:31;35.80;78.00
32865;DHT22;19219;44.500;11.188;2023-06-22T13:25:58;35.90;78.80
32865;DHT22;19219;44.500;11.188;2023-06-22T13:28:24;35.90;80.20
32865;DHT22;19219;44.500;11.188;2023-06-22T13:30:49;35.70;78.90
32865;DHT22;19219;44.500;11.188;2023-06-22T13:33:15;35.70;81.20
32865;DHT22;19219;44.500;11.188;2023-06-22T13:35:42;35.70;82.70
32865;DHT22;19219;44.500;11.188;2023-06-22T13:38:10;35.90;81.00
32865;DHT22;19219;44.500;11.188;2023-06-22T13:40:37;35.90;78.70
32865;DHT22;19219;44.500;11.188;2023-06-22T13:43:04;36.10;80.30
32865;DHT22;19219;44.500;11.188;2023-06-22T13:45:30;36.20;81.40
32865;DHT22;19219;44.500;11.188;2023-06-22T13:47:56;36.30;79.50
32865;DHT22;19219;44.500;11.188;2023-06-22T13:50:21;36.30;78.20
32865;DHT22;19219;44.500;11.188;2023-06-22T13:52:47;36.40;82.10
32865;DHT22;19219;44.500;11.188;2023-06-22T13:55:13;36.30;80.70
32865;DHT22;19219;44.500;11.188;2023-06-22T13:57:40;36.30;79.00
32865;DHT22;19219;44.500;11.188;2023-06-22T14:00:06;36.30;80.50
32865;DHT22;19219;44.500;11.188;2023-06-22T14:02:33;36.20;77.80
32865;DHT22;19219;44.500;11.188;2023-06-22T14:04:59;36.20;77.90
32865;DHT22;19219;44.500;11.188;2023-06-22T14:07:24;36.30;79.50
32865;DHT22;19219;44.500;11.188;2023-06-22T14:09:50;36.40;79.50
32865;DHT22;19219;44.500;11.188;2023-06-22T14:12:17;36.50;80.70
32865;DHT22;19219;44.500;11.188;2023-06-22T14:14:43;36.40;78.60
32865;DHT22;19219;44.500;11.188;2023-06-22T14:17:09;36.40;79.20
32865;DHT22;19219;44.500;11.188;2023-06-22T14:19:35;36.30;76.00
32865;DHT22;19219;44.500;11.188;2023-06-22T14:22:01;36.10;75.10
32865;DHT22;19219;44.500;11.188;2023-06-22T14:24:27;36.10;77.60
32865;DHT22;19219;44.500;11.188;2023-06-22T14:26:54;36.00;79.50
32865;DHT22;19219;44.500;11.188;2023-06-22T14:29:21;35.90;78.70
32865;DHT22;19219;44.500;11.188;2023-06-22T14:31:47;35.80;76.80
32865;DHT22;19219;44.500;11.188;2023-06-22T14:34:13;35.80;76.70
32865;DHT22;19219;44.500;11.188;2023-06-22T14:36:39;35.80;79.90
32865;DHT22;19219;44.500;11.188;2023-06-22T14:39:05;35.60;82.10
32865;DHT22;19219;44.500;11.188;2023-06-22T14:41:31;35.60;80.50
32865;DHT22;19219;44.500;11.188;2023-06-22T14:43:57;35.50;80.10
32865;DHT22;19219;44.500;11.188;2023-06-22T14:46:23;35.40;82.00
32865;DHT22;19219;44.500;11.188;2023-06-22T14:48:48;35.30;82.40
32865;DHT22;19219;44.500;11.188;2023-06-22T14:51:14;35.30;84.10
32865;DHT22;19219;44.500;11.188;2023-06-22T14:53:41;35.20;84.10
32865;DHT22;19219;44.500;11.188;2023-06-22T14:56:07;35.20;84.10
32865;DHT22;19219;44.500;11.188;2023-06-22T14:58:34;35.20;85.60
32865;DHT22;19219;44.500;11.188;2023-06-22T15:01:01;35.20;86.80
32865;DHT22;19219;44.500;11.188;2023-06-22T15:03:27;35.10;87.70
32865;DHT22;19219;44.500;11.188;2023-06-22T15:05:54;35.10;88.10
32865;DHT22;19219;44.500;11.188;2023-06-22T15:08:20;35.10;90.00
32865;DHT22;19219;44.500;11.188;2023-06-22T15:10:46;35.10;91.00
32865;DHT22;19219;44.500;11.188;2023-06-22T15:13:12;35.00;90.50
32865;DHT22;19219;44.500;11.188;2023-06-22T15:15:38;35.00;89.90
32865;DHT22;19219;44.500;11.188;2023-06-22T15:18:04;34.90;90.30
32865;DHT22;19219;44.500;11.188;2023-06-22T15:20:30;34.70;91.20
32865;DHT22;19219;44.500;11.188;2023-06-22T15:22:57;34.60;91.40
32865;DHT22;19219;44.500;11.188;2023-06-22T15:25:22;34.50;90.20
32865;DHT22;19219;44.500;11.188;2023-06-22T15:27:48;34.40;89.50
32865;DHT22;19219;44.500;11.188;2023-06-22T15:30:14;34.40;88.90
32865;DHT22;19219;44.500;11.188;2023-06-22T15:32:43;34.30;89.70
32865;DHT22;19219;44.500;11.188;2023-06-22T15:35:13;34.40;90.80